Time;durP1;ratioP1;P1;durP2;ratioP2;P2;SDS_P1;SDS_P2;PMS_P1;PMS_P2;Temp;Humidity;BMP_temperature;BMP_pressure;BME280_temperature;BME280_humidity;BME280_pressure;Samples;Min_cycle;Max_cycle;Signal;HPM_P1;HPM_P2
2022/02/12 00:01:50;;;;;;;6.03;3.40;;;23.00;59.80;;;;;;5029823;28;20223;-57
2022/02/12 00:04:21;;;;;;;6.25;3.53;;;23.00;59.80;;;;;;5029474;28;20616;-62
2022/02/12 00:06:51;;;;;;;5.78;3.42;;;23.00;59.80;;;;;;5029509;28;20231;-61
2022/02/12 00:09:22;;;;;;;6.05;3.58;;;23.00;59.70;;;;;;5028520;28;20212;-58
2022/02/12 00:11:52;;;;;;;5.95;3.20;;;23.00;59.70;;;;;;5029072;28;20224;-60
2022/02/12 00:14:23;;;;;;;6.32;3.63;;;23.00;59.60;;;;;;5029099;28;20200;-57
2022/02/12 00:16:56;;;;;;;3.55;3.00;;;23.00;59.50;;;;;;5031221;28;20208;-60
2022/02/12 00:19:26;;;;;;;3.92;3.15;;;23.00;59.50;;;;;;5027752;28;20249;-60
2022/02/12 00:21:57;;;;;;;5.53;3.28;;;23.00;59.50;;;;;;5030418;28;20250;-60
2022/02/12 00:24:28;;;;;;;4.40;3.40;;;23.00;59.50;;;;;;5030084;28;20247;-56
2022/02/12 00:26:58;;;;;;;4.35;3.42;;;23.00;59.50;;;;;;5029440;28;20562;-59
2022/02/12 00:29:29;;;;;;;5.22;3.15;;;23.00;59.50;;;;;;5029325;28;20258;-60
2022/02/12 00:32:01;;;;;;;4.22;3.25;;;23.00;59.50;;;;;;5028972;28;20228;-59
2022/02/12 00:34:32;;;;;;;7.15;3.67;;;23.00;59.50;;;;;;5029346;28;20212;-59
2022/02/12 00:37:03;;;;;;;4.78;3.28;;;23.00;59.40;;;;;;5029631;28;20649;-59
2022/02/12 00:39:34;;;;;;;5.10;3.13;;;23.00;59.40;;;;;;5028960;28;20232;-58
2022/02/12 00:42:05;;;;;;;5.43;3.42;;;23.00;59.50;;;;;;5029015;28;20200;-59
2022/02/12 00:44:39;;;;;;;4.80;2.80;;;23.00;59.40;;;;;;5029873;28;20569;-60
2022/02/12 00:47:12;;;;;;;4.43;3.20;;;23.00;59.40;;;;;;5045368;28;20310;-56
2022/02/12 00:49:42;;;;;;;4.90;3.35;;;23.00;59.40;;;;;;5050069;28;20230;-61
2022/02/12 00:52:13;;;;;;;4.15;2.95;;;23.00;59.40;;;;;;5046792;28;20844;-58
2022/02/12 00:54:44;;;;;;;4.30;2.67;;;23.00;59.40;;;;;;5028943;28;20257;-62
2022/02/12 00:57:14;;;;;;;3.97;2.88;;;23.00;59.40;;;;;;5029987;28;20220;-59
2022/02/12 00:59:45;;;;;;;4.40;2.97;;;23.00;59.30;;;;;;5020568;28;20193;-56
2022/02/12 01:02:17;;;;;;;5.25;2.92;;;23.00;59.30;;;;;;5030421;28;20204;-61
2022/02/12 01:04:48;;;;;;;3.72;2.90;;;23.10;59.30;;;;;;5030301;28;20200;-59
2022/02/12 01:07:19;;;;;;;4.60;2.70;;;23.00;59.20;;;;;;5030260;28;20266;-56
2022/02/12 01:09:49;;;;;;;4.80;3.20;;;23.00;59.30;;;;;;5029697;28;20589;-57
2022/02/12 01:12:20;;;;;;;3.53;3.03;;;23.00;59.30;;;;;;5030027;28;20224;-56
2022/02/12 01:14:50;;;;;;;3.92;3.03;;;23.00;59.30;;;;;;5029747;28;20200;-57
2022/02/12 01:17:23;;;;;;;3.83;2.80;;;23.00;59.30;;;;;;5046512;28;20219;-60
2022/02/12 01:19:53;;;;;;;5.25;3.50;;;23.00;59.20;;;;;;5049938;28;20301;-59
2022/02/12 01:22:24;;;;;;;4.15;3.00;;;23.00;59.30;;;;;;5050065;28;20204;-58
2022/02/12 01:24:55;;;;;;;4.30;3.15;;;23.00;59.20;;;;;;5042919;28;20220;-60
2022/02/12 01:27:26;;;;;;;3.65;2.92;;;23.00;59.20;;;;;;5029538;28;20629;-59
2022/02/12 01:29:57;;;;;;;3.70;2.88;;;23.00;59.20;;;;;;5029377;28;20196;-58
2022/02/12 01:32:29;;;;;;;3.35;2.88;;;23.00;59.20;;;;;;5029627;28;20227;-57
2022/02/12 01:35:00;;;;;;;3.92;2.97;;;23.00;59.20;;;;;;5029408;28;20227;-59
2022/02/12 01:37:31;;;;;;;3.33;3.00;;;23.00;59.30;;;;;;5029283;28;20777;-58
2022/02/12 01:40:02;;;;;;;3.20;2.88;;;23.00;59.30;;;;;;5029870;28;20196;-60
2022/02/12 01:42:33;;;;;;;4.35;3.00;;;23.00;59.20;;;;;;5029921;28;20200;-57
2022/02/12 01:45:04;;;;;;;3.17;2.58;;;23.00;59.20;;;;;;5029275;28;20454;-59
2022/02/12 01:47:36;;;;;;;4.30;3.03;;;23.00;59.20;;;;;;5048123;28;20223;-59
2022/02/12 01:50:10;;;;;;;4.35;3.05;;;23.00;59.20;;;;;;5011663;28;20201;-59
2022/02/12 01:52:43;;;;;;;3.55;2.78;;;23.00;59.20;;;;;;5009626;28;20286;-59
2022/02/12 01:55:13;;;;;;;2.97;2.58;;;23.00;59.20;;;;;;5010065;28;20201;-58
2022/02/12 01:57:44;;;;;;;3.40;2.75;;;23.00;59.20;;;;;;5009805;28;20738;-58
2022/02/12 02:00:18;;;;;;;3.60;2.80;;;23.00;59.20;;;;;;5019104;28;20200;-59
2022/02/12 02:02:50;;;;;;;3.38;2.75;;;23.00;59.20;;;;;;5029656;28;20218;-58
2022/02/12 02:05:21;;;;;;;3.65;2.88;;;23.00;59.20;;;;;;5029638;28;20288;-57
2022/02/12 02:07:52;;;;;;;3.85;2.85;;;23.00;59.20;;;;;;5028946;28;20228;-58
2022/02/12 02:10:23;;;;;;;3.67;2.55;;;23.00;59.20;;;;;;5029122;28;20195;-58
2022/02/12 02:12:53;;;;;;;2.95;2.60;;;23.00;59.20;;;;;;5028711;28;20695;-60
2022/02/12 02:15:24;;;;;;;3.17;2.63;;;23.00;59.20;;;;;;5029886;28;20192;-61
2022/02/12 02:17:57;;;;;;;3.58;2.63;;;23.10;59.30;;;;;;5050012;28;20203;-58
2022/02/12 02:20:28;;;;;;;2.83;2.30;;;23.00;59.30;;;;;;5050508;28;20195;-57
2022/02/12 02:23:01;;;;;;;2.83;2.55;;;23.00;59.30;;;;;;5054152;28;20207;-59
2022/02/12 02:25:31;;;;;;;3.58;2.42;;;23.10;59.30;;;;;;5041590;28;20191;-57
2022/02/12 02:28:05;;;;;;;2.90;2.60;;;23.00;59.20;;;;;;5033513;28;20223;-59
2022/02/12 02:30:36;;;;;;;3.65;2.80;;;23.10;59.30;;;;;;5032852;28;20200;-60
2022/02/12 02:33:07;;;;;;;3.30;2.70;;;23.10;59.30;;;;;;5033588;28;20680;-59
2022/02/12 02:35:37;;;;;;;2.58;2.30;;;23.10;59.30;;;;;;5033266;28;20200;-61
2022/02/12 02:38:17;;;;;;;4.13;2.60;;;23.10;59.30;;;;;;5032909;28;20199;-64
2022/02/12 02:40:48;;;;;;;3.50;2.80;;;23.10;59.20;;;;;;5033278;28;20222;-61
2022/02/12 02:43:18;;;;;;;2.90;2.60;;;23.10;59.20;;;;;;5032808;28;20204;-59
2022/02/12 02:45:49;;;;;;;2.63;2.28;;;23.10;59.20;;;;;;5036036;28;20215;-62
2022/02/12 02:48:19;;;;;;;2.85;2.50;;;23.10;59.20;;;;;;5052564;28;20195;-62
2022/02/12 02:56:44;;;;;;;3.10;2.35;;;23.10;59.30;;;;;;4989667;28;20221;-59
2022/02/12 02:59:14;;;;;;;3.20;2.70;;;23.10;59.20;;;;;;4990307;28;20208;-63
2022/02/12 03:01:45;;;;;;;2.88;2.25;;;23.10;59.30;;;;;;4992799;28;20209;-59
2022/02/12 03:04:16;;;;;;;2.88;2.25;;;23.10;59.30;;;;;;5014604;28;20192;-62
2022/02/12 03:06:46;;;;;;;3.55;2.70;;;23.10;59.30;;;;;;5012304;28;20220;-59
2022/02/12 03:09:19;;;;;;;2.97;2.40;;;23.10;59.30;;;;;;5025250;28;20200;-61
2022/02/12 03:11:50;;;;;;;2.40;2.20;;;23.10;59.30;;;;;;5032398;28;20231;-58
2022/02/12 03:14:21;;;;;;;2.83;2.40;;;23.10;59.30;;;;;;5032991;28;20651;-58
2022/02/12 03:16:51;;;;;;;2.78;2.47;;;23.10;59.30;;;;;;5044087;28;20254;-59
2022/02/12 03:19:22;;;;;;;2.40;2.20;;;23.10;59.30;;;;;;5051965;28;20690;-58
2022/02/12 03:21:52;;;;;;;2.85;2.40;;;23.10;59.30;;;;;;5052282;28;20195;-60
2022/02/12 03:24:25;;;;;;;2.25;2.05;;;23.10;59.30;;;;;;5049859;28;20252;-60
2022/02/12 03:26:55;;;;;;;3.50;2.65;;;23.10;59.30;;;;;;5031466;28;20880;-58
2022/02/12 03:29:26;;;;;;;2.65;2.40;;;23.10;59.20;;;;;;5031953;28;20199;-59
2022/02/12 03:31:57;;;;;;;2.92;2.15;;;23.10;59.30;;;;;;5031107;28;20898;-58
2022/02/12 03:34:27;;;;;;;2.80;2.10;;;23.10;59.30;;;;;;5031909;28;20246;-57
2022/02/12 03:36:58;;;;;;;2.78;2.13;;;23.10;59.20;;;;;;5031402;28;20213;-60
2022/02/12 03:39:30;;;;;;;3.03;2.33;;;23.10;59.20;;;;;;5031585;28;20196;-60
2022/02/12 03:42:01;;;;;;;2.60;2.13;;;23.10;59.30;;;;;;5032010;28;20196;-58
2022/02/12 03:44:31;;;;;;;2.67;2.47;;;23.10;59.30;;;;;;5031707;28;20192;-58
2022/02/12 03:47:04;;;;;;;2.22;2.00;;;23.10;59.20;;;;;;5044927;28;20459;-57
2022/02/12 03:49:35;;;;;;;2.85;2.22;;;23.10;59.20;;;;;;5052079;28;20199;-62
2022/02/12 03:52:06;;;;;;;3.53;2.60;;;23.10;59.20;;;;;;5051264;28;20230;-59
2022/02/12 03:54:38;;;;;;;3.58;2.33;;;23.10;59.20;;;;;;5051712;28;20199;-59
2022/02/12 03:57:09;;;;;;;2.40;1.92;;;23.10;59.80;;;;;;5051280;28;20273;-60
2022/02/12 03:59:39;;;;;;;2.67;2.08;;;23.10;59.20;;;;;;5051317;28;20246;-62
2022/02/12 04:02:10;;;;;;;2.75;2.10;;;23.10;59.30;;;;;;5032787;28;20253;-57
2022/02/12 04:04:41;;;;;;;2.97;2.45;;;23.10;59.30;;;;;;5031063;28;20208;-64
2022/02/12 04:07:11;;;;;;;2.83;2.08;;;23.00;59.20;;;;;;5031011;28;20216;-60
2022/02/12 04:09:44;;;;;;;2.47;2.10;;;23.10;59.30;;;;;;5030895;28;20206;-58
2022/02/12 04:12:14;;;;;;;3.03;2.38;;;23.10;59.20;;;;;;5027447;28;20231;-61
2022/02/12 04:14:45;;;;;;;2.55;2.00;;;23.10;59.20;;;;;;5029688;28;20229;-61
2022/02/12 04:17:16;;;;;;;2.78;2.30;;;23.10;59.30;;;;;;5029956;28;20236;-62
2022/02/12 04:19:46;;;;;;;2.15;1.95;;;23.10;59.30;;;;;;5029295;28;20208;-60
2022/02/12 04:22:17;;;;;;;2.63;2.30;;;23.10;59.40;;;;;;5028993;28;20204;-61
2022/02/12 04:24:49;;;;;;;2.17;1.95;;;23.10;59.40;;;;;;5028684;28;20193;-59
2022/02/12 04:27:20;;;;;;;2.17;1.83;;;23.10;59.30;;;;;;5029241;28;20208;-61
2022/02/12 04:29:50;;;;;;;2.35;1.98;;;23.00;59.30;;;;;;5029206;28;20739;-60
2022/02/12 04:32:22;;;;;;;2.40;2.20;;;23.00;59.30;;;;;;5029276;28;20235;-61
2022/02/12 04:34:53;;;;;;;2.65;1.90;;;23.00;59.20;;;;;;5029729;28;20655;-60
2022/02/12 04:37:25;;;;;;;2.35;1.95;;;23.00;59.20;;;;;;5028878;28;20788;-59
2022/02/12 04:39:58;;;;;;;2.20;2.00;;;23.00;59.20;;;;;;5029481;28;20196;-60
2022/02/12 04:42:29;;;;;;;2.15;1.92;;;23.00;59.20;;;;;;5028529;28;20706;-58
2022/02/12 04:44:59;;;;;;;2.38;1.90;;;23.00;59.20;;;;;;5028627;28;20607;-59
2022/02/12 04:47:31;;;;;;;2.28;2.08;;;23.00;59.20;;;;;;5029712;28;20563;-58
2022/02/12 04:50:02;;;;;;;2.25;2.05;;;23.00;59.20;;;;;;5028126;28;20292;-56
2022/02/12 04:52:32;;;;;;;2.53;2.03;;;23.00;59.10;;;;;;5028407;28;20247;-58
2022/02/12 04:55:09;;;;;;;2.40;2.10;;;23.00;59.10;;;;;;5028154;28;20213;-57
2022/02/12 04:57:39;;;;;;;2.58;2.20;;;23.00;59.20;;;;;;5026596;28;20282;-58
2022/02/12 05:00:11;;;;;;;2.10;1.88;;;23.00;59.20;;;;;;5027212;28;20246;-60
2022/02/12 05:02:42;;;;;;;2.30;1.90;;;23.00;59.20;;;;;;5026638;28;20254;-58
2022/02/12 05:05:13;;;;;;;3.05;2.00;;;23.00;59.20;;;;;;5028133;28;20272;-58
2022/02/12 05:07:43;;;;;;;2.42;2.08;;;23.00;59.20;;;;;;5028935;28;21237;-58
2022/02/12 05:10:16;;;;;;;3.35;2.00;;;23.00;59.20;;;;;;5028531;28;20253;-58
2022/02/12 05:12:46;;;;;;;2.80;1.80;;;23.00;59.10;;;;;;5029169;28;20813;-58
2022/02/12 05:15:17;;;;;;;2.42;1.80;;;23.00;59.10;;;;;;5032142;28;20276;-58
2022/02/12 05:17:48;;;;;;;2.25;1.90;;;22.90;59.10;;;;;;5010333;28;20217;-57
2022/02/12 05:20:19;;;;;;;2.90;1.88;;;23.00;59.20;;;;;;5010081;28;20203;-60
2022/02/12 05:22:50;;;;;;;2.08;1.70;;;22.90;59.20;;;;;;5010389;28;20262;-57
2022/02/12 05:25:22;;;;;;;2.25;1.90;;;22.90;59.20;;;;;;5020158;28;20710;-58
2022/02/12 05:27:53;;;;;;;1.95;1.75;;;22.90;59.10;;;;;;5028118;28;20219;-58
2022/02/12 05:30:23;;;;;;;2.08;1.60;;;22.90;59.20;;;;;;5028154;28;20293;-58
2022/02/12 05:32:54;;;;;;;2.53;1.77;;;22.90;59.20;;;;;;5028078;28;20235;-58
2022/02/12 05:35:24;;;;;;;1.77;1.67;;;22.90;59.20;;;;;;5028136;28;20868;-58
2022/02/12 05:37:55;;;;;;;1.70;1.50;;;22.80;59.10;;;;;;5028399;28;20196;-59
2022/02/12 05:40:28;;;;;;;1.98;1.77;;;22.80;59.10;;;;;;5029874;28;20200;-58
2022/02/12 05:42:59;;;;;;;1.75;1.40;;;22.80;59.20;;;;;;5029237;28;20200;-56
2022/02/12 05:45:30;;;;;;;2.13;1.58;;;22.80;59.20;;;;;;5031054;28;20196;-58
2022/02/12 05:48:03;;;;;;;2.72;1.60;;;22.80;59.10;;;;;;5049943;28;20195;-57
2022/02/12 05:50:34;;;;;;;1.63;1.52;;;22.80;59.20;;;;;;5049892;28;20261;-58
2022/02/12 05:53:04;;;;;;;1.67;1.40;;;22.80;59.10;;;;;;5049920;28;20223;-58
2022/02/12 05:55:37;;;;;;;1.73;1.63;;;22.80;59.20;;;;;;5049483;28;20196;-58
2022/02/12 05:58:08;;;;;;;2.33;1.45;;;22.80;59.10;;;;;;5042163;28;20242;-59
2022/02/12 06:00:38;;;;;;;1.73;1.52;;;22.80;59.10;;;;;;5029812;28;20196;-59
2022/02/12 06:03:09;;;;;;;1.73;1.25;;;22.80;59.20;;;;;;5029927;28;20246;-58
2022/02/12 06:05:40;;;;;;;1.40;1.30;;;22.70;59.10;;;;;;5029120;28;20270;-58
2022/02/12 06:08:10;;;;;;;1.35;1.25;;;22.70;59.10;;;;;;5029388;28;20192;-57
2022/02/12 06:10:43;;;;;;;1.65;1.20;;;22.70;59.10;;;;;;5029613;28;20254;-58
2022/02/12 06:13:13;;;;;;;2.17;1.50;;;22.70;59.10;;;;;;5028756;28;20224;-57
2022/02/12 06:15:44;;;;;;;1.85;1.20;;;22.60;59.10;;;;;;5033258;28;20199;-56
2022/02/12 06:18:15;;;;;;;1.63;1.52;;;22.60;59.10;;;;;;5049100;28;20238;-58
2022/02/12 06:20:45;;;;;;;1.40;1.25;;;22.60;59.10;;;;;;5048792;28;20742;-58
2022/02/12 06:23:16;;;;;;;1.45;1.20;;;22.60;59.10;;;;;;5049027;28;20678;-58
2022/02/12 06:25:49;;;;;;;1.60;1.17;;;22.60;59.10;;;;;;5029473;28;20259;-56
2022/02/12 06:28:20;;;;;;;1.90;1.40;;;22.50;59.00;;;;;;5029142;28;20639;-57
2022/02/12 06:30:50;;;;;;;1.30;1.20;;;22.60;59.10;;;;;;5029436;28;20626;-57
2022/02/12 06:33:21;;;;;;;1.15;1.05;;;22.50;59.00;;;;;;5028943;28;20285;-58
2022/02/12 06:35:51;;;;;;;1.15;1.02;;;22.50;59.00;;;;;;5029186;28;20695;-57
2022/02/12 06:38:22;;;;;;;1.30;1.10;;;22.50;59.00;;;;;;5029098;28;20196;-58
2022/02/12 06:40:54;;;;;;;2.22;1.35;;;22.50;59.00;;;;;;5029013;28;20258;-58
2022/02/12 06:43:25;;;;;;;1.35;1.20;;;22.50;59.10;;;;;;5028484;28;20647;-56
2022/02/12 06:45:56;;;;;;;1.40;1.15;;;22.50;59.00;;;;;;5034336;28;20219;-58
2022/02/12 06:48:26;;;;;;;1.70;1.10;;;22.40;59.00;;;;;;5049238;28;20195;-58
2022/02/12 06:50:57;;;;;;;1.30;1.17;;;22.40;59.00;;;;;;5049217;28;20196;-58
2022/02/12 06:53:28;;;;;;;1.30;1.02;;;22.40;59.00;;;;;;5017670;28;20227;-58
2022/02/12 06:56:00;;;;;;;1.08;0.98;;;22.40;59.10;;;;;;5009609;28;20224;-57
2022/02/12 06:58:31;;;;;;;0.90;0.90;;;22.30;59.00;;;;;;5015722;28;20663;-55
2022/02/12 07:01:02;;;;;;;1.27;1.10;;;22.30;59.10;;;;;;5029055;28;20200;-56
2022/02/12 07:03:33;;;;;;;1.15;0.93;;;22.30;59.10;;;;;;5029045;28;20652;-57
2022/02/12 07:06:03;;;;;;;1.20;1.10;;;22.30;59.10;;;;;;5016872;28;20271;-57
2022/02/12 07:08:34;;;;;;;1.27;1.10;;;22.30;59.10;;;;;;5018646;28;20212;-57
2022/02/12 07:11:09;;;;;;;1.20;1.10;;;22.30;59.00;;;;;;5032459;28;20680;-56
2022/02/12 07:13:40;;;;;;;1.27;1.15;;;22.30;59.10;;;;;;5032362;28;20241;-57
2022/02/12 07:16:10;;;;;;;1.35;1.00;;;22.30;59.10;;;;;;5040007;28;20218;-57
2022/02/12 07:18:41;;;;;;;0.98;0.90;;;22.30;59.10;;;;;;5052209;28;20543;-56
2022/02/12 07:21:11;;;;;;;1.45;1.00;;;22.20;59.00;;;;;;5052025;28;20195;-56
2022/02/12 07:23:42;;;;;;;1.10;1.00;;;22.20;59.00;;;;;;5049715;28;20257;-56
2022/02/12 07:26:15;;;;;;;1.10;0.98;;;22.20;59.00;;;;;;5014999;28;20216;-58
2022/02/12 07:28:45;;;;;;;1.10;0.98;;;22.20;59.00;;;;;;5031812;28;20254;-55
2022/02/12 07:31:18;;;;;;;0.95;0.80;;;22.20;59.10;;;;;;5032382;28;20199;-58
2022/02/12 07:33:49;;;;;;;1.15;1.05;;;22.20;59.10;;;;;;5031666;28;20228;-58
2022/02/12 07:36:19;;;;;;;1.02;0.93;;;22.10;59.00;;;;;;5031927;28;20815;-58
2022/02/12 07:38:50;;;;;;;1.38;1.00;;;22.10;59.00;;;;;;5031900;28;20196;-56
2022/02/12 07:41:22;;;;;;;1.25;0.98;;;22.10;59.10;;;;;;5032100;28;20204;-54
2022/02/12 07:43:53;;;;;;;2.25;1.00;;;22.10;59.10;;;;;;5031216;28;20196;-55
2022/02/12 07:46:23;;;;;;;0.85;0.80;;;22.10;59.10;;;;;;5028995;28;20273;-56
2022/02/12 07:48:54;;;;;;;1.00;0.90;;;22.00;59.00;;;;;;5030635;28;20192;-58
2022/02/12 07:51:25;;;;;;;1.17;0.80;;;22.00;59.10;;;;;;5030025;28;20721;-56
2022/02/12 07:53:55;;;;;;;1.27;1.00;;;22.00;59.10;;;;;;5030010;28;20691;-55
2022/02/12 07:56:28;;;;;;;0.90;0.75;;;22.00;59.10;;;;;;5029766;28;20224;-57
2022/02/12 07:58:58;;;;;;;1.67;0.90;;;22.00;59.10;;;;;;5029319;28;20200;-57
2022/02/12 08:01:30;;;;;;;1.00;0.90;;;22.00;59.10;;;;;;5030033;28;20586;-55
2022/02/12 08:04:00;;;;;;;1.23;1.00;;;22.00;59.70;;;;;;5029632;28;20192;-55
2022/02/12 08:09:17;;;;;;;1.95;0.85;;;21.90;59.10;;;;;;5029581;28;20235;-56
2022/02/12 08:12:02;;;;;;;1.50;0.95;;;21.90;59.10;;;;;;5029150;28;20200;-56
2022/02/12 08:14:34;;;;;;;0.93;0.77;;;21.90;59.10;;;;;;5030247;28;20335;-58
2022/02/12 08:17:05;;;;;;;2.33;1.10;;;21.90;59.10;;;;;;5029439;28;20274;-57
2022/02/12 08:19:36;;;;;;;1.00;0.90;;;21.90;59.10;;;;;;5029729;28;20204;-59
2022/02/12 08:22:06;;;;;;;0.80;0.80;;;21.90;59.10;;;;;;5029585;28;20196;-57
2022/02/12 08:24:37;;;;;;;1.00;0.90;;;21.90;59.20;;;;;;5029616;28;20204;-56
2022/02/12 08:27:11;;;;;;;1.42;1.00;;;21.80;59.10;;;;;;5029637;28;20219;-58
2022/02/12 08:29:42;;;;;;;1.02;0.80;;;21.80;59.10;;;;;;5028950;28;20283;-58
2022/02/12 08:32:13;;;;;;;1.25;0.80;;;21.80;59.20;;;;;;5029954;28;20342;-57
2022/02/12 08:34:44;;;;;;;3.70;1.23;;;21.80;59.20;;;;;;5028891;28;20705;-58
2022/02/12 08:37:14;;;;;;;1.25;0.70;;;21.80;59.20;;;;;;5029200;28;20216;-57
2022/02/12 08:39:45;;;;;;;1.27;0.80;;;21.80;59.20;;;;;;5029084;28;20547;-56
2022/02/12 08:42:20;;;;;;;1.10;1.00;;;21.70;59.20;;;;;;5029381;28;20775;-57
2022/02/12 08:44:51;;;;;;;1.00;0.80;;;21.70;59.20;;;;;;5028116;28;20200;-58
2022/02/12 08:47:21;;;;;;;1.48;1.00;;;21.70;59.20;;;;;;5029807;28;20285;-57
2022/02/12 08:49:52;;;;;;;0.93;0.80;;;21.70;59.20;;;;;;5029134;28;20188;-57
2022/02/12 08:52:24;;;;;;;1.30;0.95;;;21.70;59.20;;;;;;5029740;28;20531;-57
2022/02/12 08:54:54;;;;;;;1.45;0.85;;;21.70;59.20;;;;;;5028420;28;20231;-58
2022/02/12 08:57:27;;;;;;;0.80;0.80;;;21.70;59.20;;;;;;5028448;28;20216;-57
2022/02/12 08:59:57;;;;;;;1.05;0.60;;;21.70;59.20;;;;;;5027975;28;20619;-58
2022/02/12 09:02:28;;;;;;;1.15;0.90;;;21.70;59.20;;;;;;5029017;28;20278;-58
2022/02/12 09:04:59;;;;;;;1.92;0.70;;;21.60;59.10;;;;;;5027400;28;20631;-56
2022/02/12 09:07:29;;;;;;;2.63;1.00;;;21.60;59.10;;;;;;5027975;28;20262;-56
2022/02/12 09:10:01;;;;;;;1.50;0.82;;;21.60;59.20;;;;;;5028729;28;20192;-57
2022/02/12 09:12:34;;;;;;;1.02;0.70;;;21.60;59.20;;;;;;5028396;28;20602;-56
2022/02/12 09:15:05;;;;;;;1.10;0.75;;;21.60;59.20;;;;;;5029095;28;20871;-57
2022/02/12 09:17:35;;;;;;;1.20;0.65;;;21.50;59.10;;;;;;5027928;28;20224;-57
2022/02/12 09:20:07;;;;;;;0.93;0.60;;;21.50;59.20;;;;;;5028376;28;20813;-57
2022/02/12 09:22:38;;;;;;;1.02;0.63;;;21.50;59.20;;;;;;5028162;28;20200;-57
2022/02/12 09:25:09;;;;;;;1.27;0.70;;;21.50;59.20;;;;;;5027714;28;20204;-56
2022/02/12 09:27:42;;;;;;;0.95;0.85;;;21.50;59.20;;;;;;5027734;28;20208;-57
2022/02/12 09:30:13;;;;;;;1.00;0.70;;;21.50;59.20;;;;;;5027871;28;20190;-58
2022/02/12 09:32:44;;;;;;;1.77;1.00;;;21.50;59.10;;;;;;5028191;28;20668;-57
2022/02/12 09:35:15;;;;;;;0.50;0.50;;;21.40;59.10;;;;;;5028482;28;20200;-56
2022/02/12 09:37:45;;;;;;;1.13;0.75;;;21.40;59.10;;;;;;5028420;28;20220;-58
2022/02/12 09:40:16;;;;;;;0.75;0.75;;;21.40;59.10;;;;;;5028571;28;20207;-60
2022/02/12 09:42:49;;;;;;;0.55;0.50;;;21.40;59.10;;;;;;5028066;28;20200;-58
2022/02/12 09:45:20;;;;;;;0.80;0.80;;;21.40;59.20;;;;;;5028175;28;20254;-56
2022/02/12 09:47:52;;;;;;;0.70;0.70;;;21.40;59.10;;;;;;5028839;28;20220;-58
2022/02/12 09:50:24;;;;;;;1.52;1.00;;;21.40;59.10;;;;;;5028850;28;20263;-57
2022/02/12 09:52:56;;;;;;;0.70;0.70;;;21.40;59.10;;;;;;5028157;28;20196;-58
2022/02/12 09:55:28;;;;;;;0.50;0.50;;;21.40;59.20;;;;;;5028489;28;20196;-57
2022/02/12 09:58:00;;;;;;;1.05;0.70;;;21.30;59.10;;;;;;5027483;28;20562;-57
2022/02/12 10:00:31;;;;;;;0.82;0.60;;;21.30;59.10;;;;;;5027636;28;20262;-58
2022/02/12 10:03:01;;;;;;;0.93;0.60;;;21.30;59.10;;;;;;5027159;28;20204;-58
2022/02/12 10:05:35;;;;;;;1.38;0.60;;;21.30;59.20;;;;;;5027634;28;20245;-58
2022/02/12 10:08:15;;;;;;;1.33;0.80;;;21.30;59.20;;;;;;5027951;28;20238;-57
2022/02/12 10:10:47;;;;;;;1.02;0.63;;;21.30;59.20;;;;;;5027997;28;20242;-58
2022/02/12 10:13:20;;;;;;;0.65;0.60;;;21.30;59.20;;;;;;5027742;28;20747;-57
2022/02/12 10:15:54;;;;;;;1.00;0.75;;;21.20;59.10;;;;;;5029129;28;20219;-58
2022/02/12 10:18:26;;;;;;;0.88;0.68;;;21.30;59.10;;;;;;5028016;28;20219;-57
2022/02/12 10:20:58;;;;;;;1.17;0.65;;;21.20;59.10;;;;;;5027389;28;20197;-59
2022/02/12 10:23:29;;;;;;;0.55;0.55;;;21.20;59.10;;;;;;5028353;28;20189;-57
2022/02/12 10:26:11;;;;;;;0.68;0.60;;;21.30;59.10;;;;;;5027946;28;20358;-56
2022/02/12 10:28:46;;;;;;;1.15;0.70;;;21.20;59.10;;;;;;5028172;28;20329;-57
2022/02/12 10:31:17;;;;;;;0.70;0.60;;;21.20;59.10;;;;;;5017225;28;20193;-54
2022/02/12 10:33:51;;;;;;;0.55;0.52;;;21.20;59.10;;;;;;5010158;28;20253;-58
2022/02/12 10:36:23;;;;;;;0.80;0.70;;;21.20;59.50;;;;;;5012644;28;20256;-59
2022/02/12 10:38:54;;;;;;;0.77;0.73;;;21.20;59.70;;;;;;5009326;28;20205;-57
2022/02/12 10:41:26;;;;;;;1.42;0.68;;;21.20;59.60;;;;;;5009072;28;20197;-57
2022/02/12 10:43:59;;;;;;;0.70;0.70;;;21.20;59.60;;;;;;5011947;28;20199;-58
2022/02/12 10:46:30;;;;;;;1.02;0.60;;;21.10;59.50;;;;;;5033160;28;20288;-58
2022/02/12 10:49:01;;;;;;;0.85;0.70;;;21.20;59.60;;;;;;5053242;28;20192;-58
2022/02/12 10:51:44;;;;;;;0.80;0.65;;;21.10;59.60;;;;;;5041969;28;20223;-59
2022/02/12 10:54:17;;;;;;;0.55;0.55;;;21.10;59.50;;;;;;5027287;28;20223;-58
2022/02/12 10:56:49;;;;;;;0.98;0.77;;;21.10;59.50;;;;;;5025278;28;20212;-58
2022/02/12 10:59:22;;;;;;;1.10;0.65;;;21.10;59.40;;;;;;5027669;28;20200;-58
2022/02/12 11:01:54;;;;;;;1.50;0.70;;;21.10;59.40;;;;;;5026161;28;20192;-59
2022/02/12 11:04:27;;;;;;;1.25;0.63;;;21.10;59.40;;;;;;5026555;28;20204;-58
2022/02/12 11:06:58;;;;;;;2.00;0.80;;;21.10;59.40;;;;;;5026714;28;20212;-58
2022/02/12 11:09:31;;;;;;;0.75;0.73;;;21.00;59.40;;;;;;5029924;28;20228;-59
2022/02/12 11:12:06;;;;;;;0.60;0.55;;;21.00;59.30;;;;;;5030092;28;20275;-58
2022/02/12 11:14:41;;;;;;;0.50;0.50;;;21.10;59.40;;;;;;5028384;28;20227;-59
2022/02/12 11:17:15;;;;;;;0.90;0.70;;;21.00;59.30;;;;;;5028417;28;20223;-60
2022/02/12 11:19:47;;;;;;;2.22;0.80;;;21.00;59.30;;;;;;5028569;28;20192;-59
2022/02/12 11:22:18;;;;;;;1.15;0.70;;;21.00;59.30;;;;;;5027464;28;20232;-59
2022/02/12 11:24:49;;;;;;;1.15;0.80;;;21.00;59.30;;;;;;5027306;28;20275;-59
2022/02/12 11:27:22;;;;;;;1.00;0.80;;;21.00;59.30;;;;;;5028229;28;20223;-59
2022/02/12 11:29:55;;;;;;;0.73;0.63;;;21.00;59.30;;;;;;5019736;28;20197;-59
2022/02/12 11:32:27;;;;;;;1.30;0.70;;;21.00;59.30;;;;;;5026746;28;20603;-58
2022/02/12 11:35:23;;;;;;;1.30;0.90;;;21.00;59.30;;;;;;5031785;28;20228;-58
2022/02/12 11:37:54;;;;;;;1.23;0.82;;;20.90;59.30;;;;;;5023130;28;20676;-58
2022/02/12 11:40:26;;;;;;;1.10;0.80;;;20.90;59.30;;;;;;5031308;28;20251;-57
2022/02/12 11:42:58;;;;;;;0.93;0.80;;;20.90;59.20;;;;;;5031386;28;20245;-58
2022/02/12 11:45:36;;;;;;;0.88;0.70;;;20.90;59.30;;;;;;5031586;28;20204;-57
2022/02/12 11:48:20;;;;;;;1.23;0.82;;;20.90;59.30;;;;;;5028415;28;20250;-57
2022/02/12 11:50:53;;;;;;;0.82;0.70;;;20.90;59.30;;;;;;5031666;28;20200;-56
2022/02/12 11:53:44;;;;;;;1.67;0.82;;;20.90;59.30;;;;;;5031317;28;20196;-58
2022/02/12 11:56:54;;;;;;;0.80;0.80;;;20.90;59.30;;;;;;5031231;28;20316;-56
2022/02/12 11:59:24;;;;;;;0.90;0.80;;;20.80;59.20;;;;;;5031466;28;20231;-58
2022/02/12 12:01:57;;;;;;;1.65;0.82;;;20.90;59.20;;;;;;5030422;28;20254;-57
2022/02/12 12:04:30;;;;;;;0.88;0.82;;;20.80;59.20;;;;;;5030961;28;20195;-58
2022/02/12 12:07:15;;;;;;;1.20;0.80;;;20.80;59.20;;;;;;5031310;28;20216;-58
2022/02/12 12:10:11;;;;;;;0.93;0.70;;;20.80;59.20;;;;;;5031330;28;20195;-58
2022/02/12 12:12:42;;;;;;;0.65;0.63;;;20.80;59.20;;;;;;5022261;28;20283;-58
2022/02/12 12:15:20;;;;;;;0.77;0.68;;;20.80;59.20;;;;;;5031906;28;20228;-57
2022/02/12 12:18:01;;;;;;;0.77;0.65;;;20.80;59.20;;;;;;5028338;28;20753;-58
2022/02/12 12:20:39;;;;;;;1.20;0.73;;;20.80;59.20;;;;;;5023928;28;20231;-58
2022/02/12 12:23:12;;;;;;;1.10;0.80;;;20.80;59.20;;;;;;5011039;28;20196;-57
2022/02/12 12:26:00;;;;;;;0.70;0.70;;;20.70;59.20;;;;;;5017826;28;20223;-60
2022/02/12 12:28:35;;;;;;;0.80;0.73;;;20.70;59.20;;;;;;5031051;28;20192;-57
2022/02/12 12:31:07;;;;;;;0.93;0.75;;;20.70;59.20;;;;;;5018779;28;20604;-57
2022/02/12 12:33:47;;;;;;;1.15;0.77;;;20.70;59.20;;;;;;5031378;28;20196;-57
2022/02/12 12:36:19;;;;;;;1.25;0.70;;;20.70;59.20;;;;;;5030954;28;20270;-57
2022/02/12 12:38:50;;;;;;;1.05;0.70;;;20.70;59.20;;;;;;5030417;28;20719;-58
2022/02/12 12:41:31;;;;;;;1.10;0.73;;;20.70;59.20;;;;;;5010412;28;20193;-57
2022/02/12 12:44:12;;;;;;;0.98;0.75;;;20.70;59.20;;;;;;5010769;28;20193;-57
2022/02/12 12:46:44;;;;;;;0.88;0.73;;;20.70;59.20;;;;;;5027096;28;20629;-56
2022/02/12 12:49:30;;;;;;;0.85;0.80;;;20.70;59.70;;;;;;5030482;28;20287;-57
2022/02/12 12:52:01;;;;;;;0.93;0.70;;;20.70;59.20;;;;;;5030330;28;20286;-57
2022/02/12 12:54:34;;;;;;;1.42;0.80;;;20.60;59.10;;;;;;5023477;28;20229;-58
2022/02/12 12:57:06;;;;;;;1.13;0.70;;;20.70;59.20;;;;;;5010756;28;20271;-58
2022/02/12 12:59:48;;;;;;;0.60;0.60;;;20.60;59.10;;;;;;5010694;28;20259;-58
2022/02/12 13:02:19;;;;;;;0.73;0.70;;;20.60;59.10;;;;;;5020760;28;20250;-57
2022/02/12 13:04:53;;;;;;;1.42;0.70;;;20.70;59.20;;;;;;5029875;28;20619;-57
2022/02/12 13:07:25;;;;;;;1.20;0.90;;;20.60;59.10;;;;;;5030106;28;20274;-58
2022/02/12 13:09:58;;;;;;;1.23;0.77;;;20.60;59.10;;;;;;5030289;28;20497;-58
2022/02/12 13:12:30;;;;;;;0.90;0.90;;;20.60;59.10;;;;;;5030211;28;20619;-57
2022/02/12 13:15:02;;;;;;;0.95;0.88;;;20.60;59.10;;;;;;5030463;28;20233;-58
2022/02/12 13:17:34;;;;;;;1.40;0.80;;;20.60;59.10;;;;;;5036436;28;20230;-58
2022/02/12 13:20:08;;;;;;;0.82;0.70;;;20.50;59.10;;;;;;5026500;28;20247;-57
2022/02/12 13:22:40;;;;;;;1.02;0.88;;;20.60;59.10;;;;;;5010022;28;20258;-59